Time;durP1;ratioP1;P1;durP2;ratioP2;P2;SDS_P1;SDS_P2;PMS_P1;PMS_P2;Temp;Humidity;BMP_temperature;BMP_pressure;BME280_temperature;BME280_humidity;BME280_pressure;Samples;Min_cycle;Max_cycle;Signal;HPM_P1;HPM_P2
2022/06/23 00:01:55;;;;;;;3.80;2.30;;;;;;;14.21;81.61;98480.42;109177;1274;139273;-60
2022/06/23 00:04:24;;;;;;;3.20;1.70;;;;;;;14.22;81.71;98483.36;109240;1274;22427;-60
2022/06/23 00:07:04;;;;;;;4.10;2.00;;;;;;;14.22;81.67;98490.70;109086;1276;22482;-60
2022/06/23 00:09:34;;;;;;;4.70;2.60;;;;;;;14.19;81.62;98488.97;109168;1274;138525;-60
2022/06/23 00:15:06;;;;;;;4.20;2.20;;;;;;;14.19;81.92;98493.94;101697;1310;545784;-59
2022/06/23 00:17:40;;;;;;;4.60;2.00;;;;;;;14.16;81.95;98497.67;103791;1289;22584;-60
2022/06/23 00:20:27;;;;;;;2.80;2.40;;;;;;;14.18;81.79;98497.70;108055;1286;137784;-60
2022/06/23 00:22:55;;;;;;;3.90;2.20;;;;;;;14.18;81.97;98494.85;108049;1286;23336;-60
2022/06/23 00:25:39;;;;;;;4.00;2.10;;;;;;;14.17;82.02;98491.36;108039;1287;137966;-60
2022/06/23 00:28:32;;;;;;;3.80;2.20;;;;;;;14.15;82.09;98488.38;107947;1286;189722;-60
2022/06/23 00:31:01;;;;;;;3.50;2.30;;;;;;;14.14;82.29;98491.78;107295;1292;22549;-60
2022/06/23 00:33:38;;;;;;;5.40;2.90;;;;;;;14.14;82.18;98488.34;107060;1295;139674;-60
2022/06/23 00:36:32;;;;;;;7.50;2.10;;;;;;;14.14;82.45;98492.39;107198;1294;22459;-60
2022/06/23 00:38:58;;;;;;;6.20;2.50;;;;;;;14.15;82.39;98492.31;107223;1294;138698;-60
2022/06/23 00:41:29;;;;;;;6.50;2.70;;;;;;;14.15;82.23;98489.30;107332;1292;22544;-60
2022/06/23 00:43:56;;;;;;;2.60;2.20;;;;;;;14.15;82.36;98495.17;107315;1292;138494;-60
2022/06/23 00:46:37;;;;;;;4.00;2.40;;;;;;;14.16;82.40;98501.51;107430;1290;22475;-60
2022/06/23 00:49:13;;;;;;;4.40;2.70;;;;;;;14.17;82.36;98498.52;107345;1293;22468;-60
2022/06/23 00:51:43;;;;;;;6.00;2.70;;;;;;;14.18;82.32;98495.34;107151;1294;138729;-60
2022/06/23 00:54:19;;;;;;;4.50;2.80;;;;;;;14.18;82.49;98494.63;107415;1292;22485;-60
2022/06/23 00:57:06;;;;;;;5.50;2.90;;;;;;;14.19;82.74;98488.58;104313;1292;138550;-59
2022/06/23 00:59:38;;;;;;;4.70;3.50;;;;;;;14.19;83.11;98487.98;103097;1292;24388;-59
2022/06/23 01:02:07;;;;;;;4.90;3.10;;;;;;;14.18;83.52;98480.80;102977;1293;139692;-58
2022/06/23 01:04:36;;;;;;;6.30;2.80;;;;;;;14.14;83.97;98479.73;103142;1293;22637;-58
2022/06/23 01:07:12;;;;;;;5.20;3.00;;;;;;;14.10;84.28;98482.25;102917;1294;22617;-59
2022/06/23 01:09:46;;;;;;;7.90;3.00;;;;;;;14.06;84.51;98478.65;103702;1287;139228;-59
2022/06/23 01:12:26;;;;;;;4.00;2.70;;;;;;;14.02;85.02;98479.77;103912;1287;26150;-59
2022/06/23 01:15:34;;;;;;;4.70;2.90;;;;;;;13.99;85.36;98487.86;103658;1287;138492;-59
2022/06/23 01:18:15;;;;;;;7.80;4.20;;;;;;;13.95;85.85;98485.14;103443;1291;24394;-59
2022/06/23 01:20:55;;;;;;;6.10;2.50;;;;;;;13.91;86.18;98480.69;103387;1291;138049;-59
2022/06/23 01:23:40;;;;;;;5.10;3.00;;;;;;;13.90;86.58;98476.31;103360;1292;22582;-59
2022/06/23 01:26:26;;;;;;;6.30;3.00;;;;;;;13.87;87.06;98475.34;103400;1290;138940;-58
2022/06/23 01:29:12;;;;;;;4.20;2.60;;;;;;;13.83;87.65;98472.58;103135;1294;22768;-59
2022/06/23 01:32:31;;;;;;;3.50;2.80;;;;;;;13.79;88.13;98473.36;103362;1292;138003;-59
2022/06/23 01:35:27;;;;;;;5.70;3.00;;;;;;;13.74;88.62;98466.05;102558;1300;25809;-59
2022/06/23 01:38:00;;;;;;;4.90;3.30;;;;;;;13.72;88.99;98469.77;106831;1299;138200;-59
2022/06/23 01:40:33;;;;;;;4.10;2.70;;;;;;;13.70;89.36;98475.75;106881;1299;23187;-59
2022/06/23 01:43:01;;;;;;;4.60;3.20;;;;;;;13.68;89.93;98476.27;106823;1300;23722;-59
2022/06/23 01:45:43;;;;;;;7.10;3.10;;;;;;;13.66;90.08;98473.34;106791;1299;138177;-59
2022/06/23 01:48:10;;;;;;;4.10;3.20;;;;;;;13.65;90.46;98478.94;106727;1299;22507;-59
2022/06/23 01:50:43;;;;;;;5.40;3.10;;;;;;;13.65;90.72;98481.57;106783;1300;138021;-59
2022/06/23 01:53:16;;;;;;;4.00;3.50;;;;;;;13.64;90.95;98490.69;106901;1299;23658;-59
2022/06/23 01:55:55;;;;;;;6.10;4.00;;;;;;;13.64;91.24;98488.16;107264;1290;138554;-58
2022/06/23 01:58:22;;;;;;;8.80;4.70;;;;;;;13.63;91.36;98487.96;107337;1291;23253;-59
2022/06/23 02:00:49;;;;;;;4.20;3.50;;;;;;;13.63;91.53;98492.30;107447;1290;22551;-59
2022/06/23 02:03:20;;;;;;;7.10;3.80;;;;;;;13.61;91.82;98491.73;107338;1291;137911;-59
2022/06/23 02:05:52;;;;;;;4.10;3.70;;;;;;;13.61;91.86;98488.11;107710;1290;22456;-60
2022/06/23 02:08:32;;;;;;;5.20;3.90;;;;;;;13.59;92.20;98487.60;107550;1290;138400;-59
2022/06/23 02:11:37;;;;;;;6.30;3.60;;;;;;;13.57;92.32;98491.24;107894;1283;22651;-59
2022/06/23 02:14:07;;;;;;;8.80;4.10;;;;;;;13.54;92.51;98490.56;108413;1283;139308;-59
2022/06/23 02:16:54;;;;;;;6.40;4.20;;;;;;;13.54;92.67;98496.20;108669;1282;22535;-58
2022/06/23 02:19:27;;;;;;;5.00;3.80;;;;;;;13.54;92.93;98497.23;108376;1282;138481;-59
2022/06/23 02:22:06;;;;;;;8.50;4.20;;;;;;;13.54;92.92;98503.95;108479;1282;22657;-59
2022/06/23 02:24:45;;;;;;;8.20;3.80;;;;;;;13.57;92.81;98503.55;108616;1282;22475;-59
2022/06/23 02:27:16;;;;;;;5.30;3.50;;;;;;;13.61;92.93;98504.91;108965;1274;138419;-59
2022/06/23 02:29:50;;;;;;;4.60;3.70;;;;;;;13.64;92.69;98507.00;109335;1275;23085;-59
2022/06/23 02:32:27;;;;;;;6.00;3.70;;;;;;;13.65;92.55;98508.02;109149;1276;137921;-60
2022/06/23 02:35:30;;;;;;;4.60;3.80;;;;;;;13.66;92.52;98503.95;109144;1274;22454;-59
2022/06/23 02:38:33;;;;;;;8.40;3.60;;;;;;;13.68;92.33;98505.13;109223;1274;140118;-60
2022/06/23 02:41:12;;;;;;;7.70;3.80;;;;;;;13.68;92.22;98507.09;109265;1274;22434;-59
2022/06/23 02:43:44;;;;;;;7.30;3.80;;;;;;;13.70;92.25;98505.41;109272;1274;139454;-59
2022/06/23 02:46:44;;;;;;;7.00;3.30;;;;;;;13.71;92.23;98503.23;109283;1274;22422;-59
2022/06/23 02:49:14;;;;;;;5.20;3.20;;;;;;;13.70;91.98;98504.62;109330;1274;22482;-60
2022/06/23 02:52:06;;;;;;;4.10;3.70;;;;;;;13.73;91.82;98506.59;109309;1274;138889;-59
2022/06/23 02:54:46;;;;;;;6.70;3.30;;;;;;;13.74;91.92;98509.85;109342;1274;22505;-60
2022/06/23 02:57:19;;;;;;;5.30;3.50;;;;;;;13.75;91.93;98509.52;109172;1274;139069;-60
2022/06/23 02:59:52;;;;;;;7.90;3.40;;;;;;;13.76;91.85;98509.05;109421;1274;23186;-59
2022/06/23 03:02:28;;;;;;;5.50;3.80;;;;;;;13.78;91.57;98511.00;109208;1274;137834;-59
2022/06/23 03:05:05;;;;;;;4.20;3.00;;;;;;;13.80;91.55;98509.65;109435;1274;23130;-59
2022/06/23 03:07:39;;;;;;;5.10;2.90;;;;;;;13.84;91.42;98515.34;109265;1274;138867;-60
2022/06/23 03:10:41;;;;;;;5.10;3.10;;;;;;;13.87;91.07;98513.06;109172;1276;22525;-60
2022/06/23 03:13:29;;;;;;;4.20;3.40;;;;;;;13.90;90.77;98515.59;108761;1280;22458;-59
2022/06/23 03:16:05;;;;;;;9.40;4.60;;;;;;;13.90;90.48;98517.07;107421;1280;26001;-59
2022/06/23 03:18:41;;;;;;;4.20;3.80;;;;;;;13.92;90.21;98517.52;108872;1280;22564;-59
2022/06/23 03:21:27;;;;;;;6.40;3.10;;;;;;;13.93;89.89;98516.08;108642;1280;139574;-59
2022/06/23 03:24:02;;;;;;;5.30;3.20;;;;;;;13.95;89.90;98520.04;108769;1280;22455;-59
2022/06/23 03:26:37;;;;;;;6.70;3.30;;;;;;;13.97;89.67;98512.22;108529;1282;139193;-59
2022/06/23 03:29:28;;;;;;;4.90;3.50;;;;;;;14.00;89.55;98506.02;108779;1280;22279;-59
2022/06/23 03:32:04;;;;;;;5.90;3.60;;;;;;;14.03;89.31;98506.72;108648;1280;139891;-59
2022/06/23 03:34:46;;;;;;;5.10;3.20;;;;;;;14.05;89.34;98514.23;108945;1280;22520;-59
2022/06/23 03:37:20;;;;;;;8.30;3.70;;;;;;;14.10;89.28;98518.86;108628;1280;22550;-59
2022/06/23 03:42:45;;;;;;;4.20;3.30;;;;;;;14.16;88.92;98526.58;108628;1280;22702;-59
2022/06/23 03:45:32;;;;;;;4.60;3.30;;;;;;;14.19;88.68;98526.88;108484;1280;137852;-60
2022/06/23 03:48:03;;;;;;;7.20;3.70;;;;;;;14.21;88.49;98529.33;109313;1273;22603;-59
2022/06/23 03:50:46;;;;;;;3.70;3.30;;;;;;;14.26;88.36;98538.89;109271;1274;137845;-59
2022/06/23 03:53:22;;;;;;;7.20;3.60;;;;;;;14.29;88.23;98534.78;109331;1274;22479;-58
2022/06/23 03:55:51;;;;;;;4.60;3.60;;;;;;;14.31;88.22;98540.19;107984;1274;139890;-58
2022/06/23 03:58:29;;;;;;;5.10;3.60;;;;;;;14.34;88.17;98539.15;109255;1273;23319;-59
2022/06/23 04:01:00;;;;;;;11.10;4.20;;;;;;;14.36;88.06;98541.96;109418;1274;22408;-59
2022/06/23 04:03:45;;;;;;;6.80;3.80;;;;;;;14.38;87.90;98544.73;109167;1274;138337;-59
2022/06/23 04:06:13;;;;;;;4.90;3.70;;;;;;;14.42;87.76;98546.31;109291;1275;22525;-59
2022/06/23 04:09:13;;;;;;;6.60;3.50;;;;;;;14.46;87.77;98552.91;109097;1275;139218;-59
2022/06/23 04:12:03;;;;;;;8.60;3.70;;;;;;;14.50;87.66;98558.31;109345;1274;22633;-60
2022/06/23 04:14:49;;;;;;;5.50;3.30;;;;;;;14.53;87.45;98560.39;109251;1274;138824;-60
2022/06/23 04:17:21;;;;;;;3.30;2.90;;;;;;;14.56;87.20;98564.67;109402;1274;22400;-60
2022/06/23 04:19:53;;;;;;;4.40;3.30;;;;;;;14.57;87.13;98558.97;109268;1274;139570;-60
2022/06/23 04:22:24;;;;;;;5.20;3.70;;;;;;;14.60;87.05;98557.21;109322;1276;22444;-60
2022/06/23 04:24:53;;;;;;;10.80;3.60;;;;;;;14.62;86.96;98557.11;109336;1274;23242;-60
2022/06/23 04:27:25;;;;;;;10.90;3.70;;;;;;;14.65;86.91;98562.11;109164;1274;138422;-60
2022/06/23 04:29:53;;;;;;;5.20;3.30;;;;;;;14.66;86.90;98560.45;109418;1274;22674;-60
2022/06/23 04:32:26;;;;;;;6.90;3.60;;;;;;;14.68;86.61;98563.85;109168;1274;138896;-60
2022/06/23 04:35:10;;;;;;;5.10;3.40;;;;;;;14.70;86.62;98569.85;109334;1274;22261;-60
2022/06/23 04:37:58;;;;;;;6.70;3.80;;;;;;;14.73;86.43;98573.75;109196;1274;138982;-60
2022/06/23 04:40:33;;;;;;;8.30;3.50;;;;;;;14.76;86.46;98571.27;109438;1274;22426;-60
2022/06/23 04:43:05;;;;;;;4.30;3.80;;;;;;;14.79;86.40;98565.73;109239;1274;23126;-60
2022/06/23 04:45:52;;;;;;;8.30;3.70;;;;;;;14.82;86.40;98566.86;109216;1274;139849;-59
2022/06/23 04:48:41;;;;;;;5.20;3.70;;;;;;;14.88;86.35;98577.92;109401;1274;22457;-59
2022/06/23 04:51:23;;;;;;;8.20;4.20;;;;;;;14.92;86.29;98578.73;109342;1274;138424;-59
2022/06/23 04:53:59;;;;;;;8.50;3.80;;;;;;;14.97;86.15;98582.00;109457;1274;22456;-58
2022/06/23 04:56:38;;;;;;;9.20;4.40;;;;;;;15.02;86.02;98580.56;109274;1274;141062;-58
2022/06/23 04:59:23;;;;;;;6.80;3.60;;;;;;;15.05;86.00;98582.63;109373;1274;23481;-59
2022/06/23 05:01:51;;;;;;;5.70;3.40;;;;;;;15.11;85.90;98585.50;109311;1274;138686;-58
2022/06/23 05:04:22;;;;;;;6.10;3.90;;;;;;;15.15;85.69;98585.56;109406;1274;23503;-59
2022/06/23 05:06:51;;;;;;;6.60;3.60;;;;;;;15.19;85.53;98585.04;109384;1274;22909;-59
2022/06/23 05:09:25;;;;;;;5.80;3.60;;;;;;;15.22;85.37;98586.93;109061;1274;138409;-59
2022/06/23 05:12:00;;;;;;;4.90;3.70;;;;;;;15.26;85.44;98582.10;109310;1274;23694;-59
2022/06/23 05:14:49;;;;;;;5.60;3.90;;;;;;;15.26;85.23;98584.49;109135;1274;138272;-60
2022/06/23 05:17:20;;;;;;;4.80;3.10;;;;;;;15.27;85.03;98591.63;109266;1275;22457;-59
2022/06/23 05:19:47;;;;;;;8.90;3.90;;;;;;;15.27;84.72;98592.60;109314;1274;140277;-59
2022/06/23 05:22:29;;;;;;;7.50;3.60;;;;;;;15.28;84.45;98587.42;109278;1274;22227;-60
2022/06/23 05:24:56;;;;;;;7.20;3.40;;;;;;;15.31;84.49;98589.52;109252;1275;22441;-59
2022/06/23 05:27:26;;;;;;;3.70;3.20;;;;;;;15.34;84.24;98590.66;109221;1273;138937;-59
2022/06/23 05:30:05;;;;;;;6.90;3.60;;;;;;;15.35;83.91;98590.29;109318;1273;23295;-59
2022/06/23 05:32:53;;;;;;;6.60;3.50;;;;;;;15.36;83.74;98590.40;109160;1274;138110;-60
2022/06/23 05:35:26;;;;;;;5.00;3.40;;;;;;;15.35;83.71;98594.05;109376;1274;22573;-59
2022/06/23 05:37:58;;;;;;;4.60;3.40;;;;;;;15.36;83.72;98602.86;109192;1274;139940;-59
2022/06/23 05:40:55;;;;;;;6.30;3.40;;;;;;;15.39;83.78;98602.73;109330;1274;22429;-60
2022/06/23 05:43:23;;;;;;;6.20;3.00;;;;;;;15.44;83.69;98601.83;108847;1279;139579;-60
2022/06/23 05:45:52;;;;;;;6.40;3.80;;;;;;;15.49;83.70;98601.70;108808;1280;22478;-59
2022/06/23 05:48:24;;;;;;;5.20;3.20;;;;;;;15.57;83.62;98603.13;108800;1280;22507;-59
2022/06/23 05:50:58;;;;;;;5.00;3.40;;;;;;;15.66;83.51;98608.02;108781;1280;139864;-59
2022/06/23 05:53:53;;;;;;;5.60;3.00;;;;;;;15.77;83.61;98608.42;108919;1280;22625;-59
2022/06/23 05:56:23;;;;;;;4.30;3.60;;;;;;;15.91;83.39;98607.18;106242;1286;139053;-59
2022/06/23 05:59:00;;;;;;;5.40;3.40;;;;;;;16.03;83.04;98611.00;108192;1285;22575;-59
2022/06/23 06:01:32;;;;;;;5.30;3.30;;;;;;;16.13;82.65;98618.19;108114;1286;138186;-59
2022/06/23 06:04:02;;;;;;;4.70;3.50;;;;;;;16.21;81.88;98618.19;108067;1287;22451;-59
2022/06/23 06:06:29;;;;;;;5.60;3.20;;;;;;;16.27;81.58;98617.88;107893;1286;22497;-59
2022/06/23 06:11:45;;;;;;;4.20;3.30;;;;;;;16.36;81.03;98619.97;108319;1286;23643;-59
2022/06/23 06:14:13;;;;;;;5.60;3.20;;;;;;;16.40;80.70;98623.29;107825;1287;139248;-59
2022/06/23 06:16:40;;;;;;;11.90;3.40;;;;;;;16.44;80.75;98620.98;107963;1287;22482;-59
2022/06/23 06:19:12;;;;;;;4.80;3.40;;;;;;;16.50;80.92;98615.88;108049;1286;22507;-59
2022/06/23 06:21:39;;;;;;;3.90;2.90;;;;;;;16.57;80.71;98618.73;108338;1284;139531;-59
2022/06/23 06:24:28;;;;;;;3.70;3.20;;;;;;;16.62;80.53;98613.23;108490;1283;22585;-59
2022/06/23 06:26:55;;;;;;;4.90;3.40;;;;;;;16.69;80.50;98606.81;108440;1282;138494;-59
2022/06/23 06:29:35;;;;;;;4.70;2.90;;;;;;;16.75;79.97;98597.20;108451;1281;23295;-59
2022/06/23 06:32:19;;;;;;;6.70;3.30;;;;;;;16.84;79.62;98600.85;108386;1281;139744;-60
2022/06/23 06:34:49;;;;;;;5.70;3.40;;;;;;;16.96;79.78;98599.98;108956;1277;23332;-59
2022/06/23 06:37:16;;;;;;;7.10;3.40;;;;;;;17.09;79.63;98608.83;109307;1274;23228;-60
2022/06/23 06:39:54;;;;;;;4.20;3.60;;;;;;;17.20;78.85;98610.94;109309;1274;138428;-60
2022/06/23 06:42:23;;;;;;;4.30;3.50;;;;;;;17.28;78.48;98614.23;109387;1274;22451;-60
2022/06/23 06:44:51;;;;;;;6.20;3.50;;;;;;;17.33;78.01;98620.48;109331;1274;137945;-59
2022/06/23 06:47:23;;;;;;;4.40;3.30;;;;;;;17.38;77.73;98625.30;109399;1274;22467;-59
2022/06/23 06:49:57;;;;;;;5.50;3.20;;;;;;;17.43;77.37;98631.58;109366;1274;138617;-59
2022/06/23 06:52:25;;;;;;;6.30;3.10;;;;;;;17.47;76.29;98639.88;109301;1274;22521;-60
2022/06/23 06:54:58;;;;;;;6.00;3.00;;;;;;;17.46;75.10;98634.74;109295;1274;22441;-60
2022/06/23 06:57:30;;;;;;;;;;;;;;;17.42;75.29;98637.67;109083;1274;138871;-60
2022/06/23 07:00:07;;;;;;;6.20;3.20;;;;;;;17.42;75.24;98635.54;109308;1274;22526;-60
2022/06/23 07:02:40;;;;;;;9.90;3.00;;;;;;;17.45;75.24;98642.18;109191;1276;138764;-60
2022/06/23 07:05:17;;;;;;;8.40;3.10;;;;;;;17.46;75.34;98644.69;109376;1274;22479;-60
2022/06/23 07:07:45;;;;;;;4.90;3.20;;;;;;;17.49;75.51;98654.25;104992;1274;140038;-59
2022/06/23 07:10:34;;;;;;;4.60;3.30;;;;;;;17.52;75.16;98658.79;109278;1274;23247;-59
2022/06/23 07:13:07;;;;;;;6.40;3.50;;;;;;;17.50;75.07;98667.20;109292;1274;23229;-59
2022/06/23 07:15:37;;;;;;;7.10;3.20;;;;;;;17.49;75.05;98670.05;109342;1274;138077;-59
2022/06/23 07:18:19;;;;;;;8.20;2.80;;;;;;;17.49;74.84;98674.85;109262;1274;22910;-59
2022/06/23 07:20:57;;;;;;;6.50;2.80;;;;;;;17.49;74.38;98680.75;109307;1274;139093;-60
2022/06/23 07:23:28;;;;;;;5.70;3.10;;;;;;;17.48;74.60;98677.63;109475;1274;22439;-59
2022/06/23 07:26:02;;;;;;;7.80;3.50;;;;;;;17.48;74.74;98677.02;109285;1274;139049;-60
2022/06/23 07:28:39;;;;;;;4.80;3.20;;;;;;;17.51;74.80;98678.61;109307;1274;22252;-60
2022/06/23 07:31:12;;;;;;;4.70;3.60;;;;;;;17.59;74.80;98687.79;109317;1274;22409;-59
2022/06/23 07:33:44;;;;;;;4.70;3.30;;;;;;;17.70;74.48;98686.23;109216;1274;137840;-59
2022/06/23 07:36:15;;;;;;;4.30;3.20;;;;;;;17.81;74.37;98689.49;109304;1274;22509;-59
2022/06/23 07:38:47;;;;;;;4.60;3.10;;;;;;;17.93;74.39;98690.23;109269;1274;138819;-59
2022/06/23 07:41:36;;;;;;;3.10;2.80;;;;;;;18.08;73.89;98691.30;109351;1273;22427;-59
2022/06/23 07:44:08;;;;;;;6.00;2.80;;;;;;;18.21;73.69;98689.05;109218;1274;138405;-59
2022/06/23 07:46:36;;;;;;;7.30;3.40;;;;;;;18.33;73.43;98692.73;109312;1274;23480;-59
2022/06/23 07:49:03;;;;;;;4.70;3.60;;;;;;;18.45;72.83;98694.08;109332;1274;23197;-59
2022/06/23 07:51:30;;;;;;;5.80;3.60;;;;;;;18.55;72.29;98702.17;109260;1274;138933;-59
2022/06/23 07:53:57;;;;;;;5.40;3.50;;;;;;;18.62;71.83;98700.21;109505;1274;22442;-60
2022/06/23 07:56:29;;;;;;;4.30;2.90;;;;;;;18.68;71.52;98702.50;109318;1273;139458;-59
2022/06/23 07:58:59;;;;;;;9.60;3.80;;;;;;;18.70;70.75;98707.17;109324;1274;23081;-60
2022/06/23 08:01:41;;;;;;;7.90;4.20;;;;;;;18.69;70.29;98710.89;109114;1274;139210;-60
2022/06/23 08:04:32;;;;;;;4.60;3.60;;;;;;;18.65;70.02;98718.38;109368;1274;22431;-60
2022/06/23 08:07:02;;;;;;;4.30;3.80;;;;;;;18.57;69.84;98717.23;108771;1274;22428;-59
2022/06/23 08:09:31;;;;;;;6.50;3.40;;;;;;;18.51;70.19;98730.12;106945;1274;139724;-60
2022/06/23 08:18:41;;;;;;;9.80;3.70;;;;;;;18.30;70.88;98732.56;106605;1284;22509;-59
2022/06/23 08:21:14;;;;;;;6.60;3.80;;;;;;;18.29;71.39;98734.34;106480;1283;139186;-59
2022/06/23 08:24:03;;;;;;;5.40;3.00;;;;;;;18.28;71.42;98737.42;106462;1284;23047;-59
2022/06/23 08:26:30;;;;;;;3.20;2.90;;;;;;;18.29;71.13;98744.27;106481;1283;139260;-59
2022/06/23 08:28:58;;;;;;;5.40;3.00;;;;;;;18.29;71.35;98739.92;106641;1283;23349;-59
2022/06/23 08:31:25;;;;;;;5.60;3.10;;;;;;;18.35;71.45;98748.09;106451;1283;138904;-59
2022/06/23 08:34:12;;;;;;;8.70;3.40;;;;;;;18.40;71.21;98746.23;106682;1282;22552;-59
2022/06/23 08:36:43;;;;;;;5.40;2.70;;;;;;;18.51;70.68;98744.69;106579;1282;22427;-59
2022/06/23 08:39:14;;;;;;;7.40;2.90;;;;;;;18.64;70.61;98751.91;106598;1283;139332;-59
2022/06/23 08:41:44;;;;;;;5.10;3.30;;;;;;;18.76;69.80;98752.91;106598;1284;24648;-59
2022/06/23 08:44:41;;;;;;;9.20;3.10;;;;;;;18.88;69.08;98754.27;106532;1284;139186;-60
2022/06/23 08:47:29;;;;;;;4.40;3.10;;;;;;;18.93;69.47;98753.13;106608;1283;22531;-59
2022/06/23 08:50:27;;;;;;;5.70;3.40;;;;;;;18.97;69.06;98753.84;106561;1283;139441;-59
2022/06/23 08:53:06;;;;;;;5.20;3.10;;;;;;;19.00;68.31;98763.21;107062;1275;22645;-59
2022/06/23 08:55:40;;;;;;;6.40;2.90;;;;;;;19.00;68.41;98757.27;107088;1274;138667;-59
2022/06/23 08:58:46;;;;;;;6.60;3.40;;;;;;;19.01;67.86;98767.53;107207;1274;24835;-60
2022/06/23 09:01:22;;;;;;;4.00;2.80;;;;;;;19.02;67.49;98765.69;107309;1274;23490;-60
2022/06/23 09:04:14;;;;;;;5.70;2.80;;;;;;;18.99;67.55;98766.08;107273;1274;22818;-59
2022/06/23 09:06:53;;;;;;;7.10;2.90;;;;;;;18.92;67.50;98773.54;107294;1274;22429;-60
2022/06/23 09:09:32;;;;;;;4.30;3.20;;;;;;;18.86;67.16;98780.20;107110;1274;139836;-60
2022/06/23 09:12:20;;;;;;;3.90;3.40;;;;;;;18.83;67.44;98783.60;107288;1274;22453;-60
2022/06/23 09:14:58;;;;;;;5.30;3.80;;;;;;;18.78;67.38;98786.03;107191;1274;140346;-60
2022/06/23 09:17:50;;;;;;;8.50;3.60;;;;;;;18.83;67.63;98802.64;107371;1274;22395;-60
2022/06/23 09:20:22;;;;;;;5.00;3.00;;;;;;;18.93;67.75;98803.38;107215;1273;138665;-60
2022/06/23 09:22:58;;;;;;;8.70;3.60;;;;;;;19.09;67.95;98799.95;107263;1274;22513;-60
2022/06/23 09:25:50;;;;;;;5.70;3.30;;;;;;;19.31;67.93;98800.39;107096;1274;138893;-60
2022/06/23 09:28:23;;;;;;;5.10;3.10;;;;;;;19.63;67.52;98804.73;107234;1274;22464;-60
2022/06/23 09:30:53;;;;;;;6.40;3.30;;;;;;;19.84;66.42;98802.00;107252;1274;25347;-60
2022/06/23 09:33:21;;;;;;;6.10;3.60;;;;;;;20.00;65.31;98800.88;107132;1274;140316;-60
2022/06/23 09:36:01;;;;;;;4.80;3.00;;;;;;;20.05;65.36;98792.38;107250;1274;24998;-60
2022/06/23 09:38:28;;;;;;;6.60;3.10;;;;;;;20.10;64.72;98789.10;107183;1274;139474;-60
2022/06/23 09:41:47;;;;;;;3.80;2.40;;;;;;;20.09;64.56;98799.25;107250;1274;23239;-59
2022/06/23 09:44:53;;;;;;;7.40;3.00;;;;;;;20.09;63.70;98797.11;107144;1274;138868;-60
2022/06/23 09:48:14;;;;;;;8.00;2.50;;;;;;;20.10;63.03;98806.56;103644;1281;22574;-60
2022/06/23 09:50:44;;;;;;;5.10;2.70;;;;;;;20.06;61.24;98802.98;102654;1287;138916;-59
2022/06/23 09:53:21;;;;;;;3.90;2.40;;;;;;;20.02;60.93;98806.59;102747;1288;23844;-59
2022/06/23 09:55:55;;;;;;;3.00;2.40;;;;;;;19.94;60.85;98816.78;102673;1287;138164;-59
2022/06/23 09:58:30;;;;;;;6.50;2.40;;;;;;;19.89;60.61;98821.88;102703;1288;22621;-59
2022/06/23 10:01:09;;;;;;;6.70;2.10;;;;;;;19.86;60.63;98823.88;102710;1288;22869;-59
2022/06/23 10:03:55;;;;;;;6.50;2.70;;;;;;;19.81;60.57;98826.27;102606;1288;140069;-60
2022/06/23 10:06:40;;;;;;;7.50;2.40;;;;;;;19.75;60.37;98827.26;102650;1288;22608;-58
2022/06/23 10:09:07;;;;;;;7.60;2.60;;;;;;;19.72;60.51;98834.09;102448;1289;138080;-59
2022/06/23 10:11:46;;;;;;;4.50;3.30;;;;;;;19.71;60.64;98830.58;102590;1290;22968;-59
2022/06/23 10:14:15;;;;;;;6.30;3.10;;;;;;;19.70;60.91;98824.56;102483;1288;139019;-59
2022/06/23 10:17:36;;;;;;;15.30;3.60;;;;;;;19.71;61.19;98825.66;102733;1290;25086;-59
2022/06/23 10:20:27;;;;;;;3.90;2.90;;;;;;;19.75;61.14;98831.04;102010;1294;139620;-58
2022/06/23 10:23:03;;;;;;;6.30;3.20;;;;;;;19.80;60.30;98834.96;102718;1288;24839;-59
2022/06/23 10:25:33;;;;;;;7.90;2.50;;;;;;;19.86;59.46;98836.05;102928;1283;139536;-59
2022/06/23 10:28:18;;;;;;;2.80;2.40;;;;;;;19.92;58.68;98843.17;103172;1283;23330;-59
2022/06/23 10:30:48;;;;;;;7.60;3.70;;;;;;;20.01;58.13;98834.17;103067;1283;25267;-59
2022/06/23 10:33:38;;;;;;;4.80;2.20;;;;;;;20.13;58.13;98838.19;102984;1281;139505;-58
2022/06/23 10:36:46;;;;;;;4.20;2.20;;;;;;;20.26;58.47;98837.19;103265;1281;22693;-59
2022/06/23 10:39:22;;;;;;;;;;;;;;;20.35;56.84;98835.80;102506;1290;139421;-58
2022/06/23 10:42:04;;;;;;;4.50;2.10;;;;;;;20.39;56.99;98850.19;102805;1288;22712;-58
2022/06/23 10:44:42;;;;;;;3.90;2.50;;;;;;;20.38;56.92;98852.19;102763;1288;138031;-60
2022/06/23 10:47:19;;;;;;;5.80;2.80;;;;;;;20.34;57.03;98860.08;102822;1288;23080;-60
2022/06/23 10:50:08;;;;;;;4.30;2.40;;;;;;;20.27;57.39;98854.98;102495;1288;140453;-60
2022/06/23 10:52:57;;;;;;;;;;;;;;;20.20;57.74;98869.27;103074;1284;22688;-58
2022/06/23 10:55:28;;;;;;;6.10;2.40;;;;;;;20.12;57.78;98876.97;102939;1285;124622;-58
2022/06/23 10:58:24;;;;;;;4.30;2.50;;;;;;;20.02;57.80;98873.20;103074;1285;27106;-59
2022/06/23 11:01:14;;;;;;;3.10;2.30;;;;;;;19.91;58.03;98867.61;103006;1284;23435;-58
2022/06/23 11:04:07;;;;;;;5.00;2.40;;;;;;;19.82;58.54;98872.48;103088;1284;138228;-57
2022/06/23 11:06:41;;;;;;;3.20;2.10;;;;;;;19.75;58.83;98878.27;103034;1282;26991;-61
2022/06/23 11:09:11;;;;;;;4.30;2.30;;;;;;;19.70;59.20;98883.36;103045;1282;137693;-60
2022/06/23 11:12:00;;;;;;;2.80;2.40;;;;;;;19.65;59.36;98888.19;103099;1284;22704;-60
2022/06/23 11:15:05;;;;;;;5.50;2.20;;;;;;;19.61;59.58;98894.60;103598;1274;139570;-60
2022/06/23 11:17:51;;;;;;;4.00;2.50;;;;;;;19.56;59.87;98895.67;103836;1274;22578;-60
2022/06/23 11:20:33;;;;;;;5.30;2.40;;;;;;;19.51;60.00;98899.02;103713;1274;138331;-59
2022/06/23 11:23:05;;;;;;;5.20;2.70;;;;;;;19.47;60.03;98907.27;103947;1274;23905;-60
2022/06/23 11:25:56;;;;;;;15.20;3.40;;;;;;;19.46;60.16;98907.67;103879;1274;138681;-59
2022/06/23 11:28:45;;;;;;;14.60;3.60;;;;;;;19.46;60.06;98916.14;104010;1274;22740;-58
2022/06/23 11:31:38;;;;;;;2.50;2.10;;;;;;;19.43;59.86;98910.96;104021;1274;24231;-59
2022/06/23 11:34:24;;;;;;;4.60;2.80;;;;;;;19.47;58.84;98912.31;103738;1275;25219;-58
2022/06/23 11:37:15;;;;;;;4.40;2.70;;;;;;;19.50;59.74;98924.30;103984;1274;25588;-59
2022/06/23 11:39:48;;;;;;;3.70;2.50;;;;;;;19.56;60.55;98932.36;103863;1274;138869;-58
2022/06/23 11:42:53;;;;;;;6.90;3.10;;;;;;;19.58;60.90;98931.74;103925;1274;22589;-59
2022/06/23 11:45:23;;;;;;;4.10;3.10;;;;;;;19.55;60.96;98931.61;103822;1274;138674;-58
2022/06/23 11:47:50;;;;;;;4.80;3.00;;;;;;;19.53;61.01;98931.63;103942;1274;23970;-58
2022/06/23 11:50:24;;;;;;;6.50;2.40;;;;;;;19.51;60.81;98930.98;103795;1274;140028;-59
2022/06/23 11:53:20;;;;;;;6.30;3.00;;;;;;;19.51;60.10;98933.24;107253;1274;22414;-59
2022/06/23 11:55:51;;;;;;;2.80;2.30;;;;;;;19.55;59.76;98940.55;106226;1275;139548;-59
2022/06/23 11:58:30;;;;;;;3.30;2.70;;;;;;;19.59;59.62;98936.00;103771;1274;22822;-58
2022/06/23 12:01:15;;;;;;;4.20;2.50;;;;;;;19.61;59.15;98938.52;103786;1274;22697;-58
2022/06/23 12:04:12;;;;;;;4.10;2.40;;;;;;;19.67;58.48;98945.09;103685;1274;138383;-58
2022/06/23 12:06:42;;;;;;;3.60;2.30;;;;;;;19.69;57.68;98941.92;103779;1274;27640;-59
2022/06/23 12:09:19;;;;;;;2.30;2.00;;;;;;;19.75;57.77;98954.34;104028;1274;137936;-58
2022/06/23 12:11:53;;;;;;;3.70;2.40;;;;;;;19.78;57.18;98958.45;105020;1274;22595;-58
2022/06/23 12:14:20;;;;;;;5.90;3.50;;;;;;;19.77;57.31;98949.52;103844;1276;139675;-59
2022/06/23 12:17:12;;;;;;;5.60;3.50;;;;;;;19.80;57.24;98956.27;103736;1277;23712;-58
2022/06/23 12:19:51;;;;;;;5.00;3.50;;;;;;;19.83;57.07;98958.61;103406;1276;139296;-59
2022/06/23 12:22:22;;;;;;;3.70;2.50;;;;;;;19.85;57.29;98961.92;103636;1274;24793;-58
2022/06/23 12:25:26;;;;;;;6.40;2.50;;;;;;;19.85;56.86;98953.89;103668;1274;24665;-59
2022/06/23 12:28:02;;;;;;;4.60;2.40;;;;;;;19.89;57.42;98950.94;103463;1276;272058;-56
2022/06/23 12:31:56;;;;;;;8.70;3.00;;;;;;;19.97;56.98;98960.44;100788;1312;546298;-58